sensor_id;sensor_type;location;lat;lon;timestamp;P1;durP1;ratioP1;P2;durP2;ratioP2
15130;SDS011;7666;50.920;4.628;2023-02-28T00:01:18;7.43;;;5.23;;
15130;SDS011;7666;50.920;4.628;2023-02-28T00:04:04;7.70;;;5.53;;
15130;SDS011;7666;50.920;4.628;2023-02-28T00:06:50;8.03;;;5.37;;
15130;SDS011;7666;50.920;4.628;2023-02-28T00:09:36;5.67;;;4.90;;
15130;SDS011;7666;50.920;4.628;2023-02-28T00:12:22;8.33;;;5.23;;
15130;SDS011;7666;50.920;4.628;2023-02-28T00:15:09;8.33;;;5.40;;
15130;SDS011;7666;50.920;4.628;2023-02-28T00:17:56;7.03;;;5.33;;
15130;SDS011;7666;50.920;4.628;2023-02-28T00:20:42;6.87;;;4.90;;
15130;SDS011;7666;50.920;4.628;2023-02-28T00:23:28;10.07;;;5.53;;
15130;SDS011;7666;50.920;4.628;2023-02-28T00:26:14;9.77;;;5.30;;
15130;SDS011;7666;50.920;4.628;2023-02-28T00:29:00;8.37;;;5.33;;
15130;SDS011;7666;50.920;4.628;2023-02-28T00:31:46;9.10;;;5.23;;
15130;SDS011;7666;50.920;4.628;2023-02-28T00:34:32;5.10;;;4.60;;
15130;SDS011;7666;50.920;4.628;2023-02-28T00:37:23;7.17;;;5.13;;
15130;SDS011;7666;50.920;4.628;2023-02-28T00:40:09;6.23;;;5.40;;
15130;SDS011;7666;50.920;4.628;2023-02-28T00:42:57;6.93;;;5.63;;
15130;SDS011;7666;50.920;4.628;2023-02-28T00:45:43;8.93;;;5.43;;
15130;SDS011;7666;50.920;4.628;2023-02-28T00:48:29;5.77;;;5.17;;
15130;SDS011;7666;50.920;4.628;2023-02-28T00:51:15;7.80;;;5.50;;
15130;SDS011;7666;50.920;4.628;2023-02-28T00:54:01;6.60;;;5.30;;
15130;SDS011;7666;50.920;4.628;2023-02-28T00:56:47;8.23;;;5.80;;
15130;SDS011;7666;50.920;4.628;2023-02-28T00:59:33;9.43;;;5.30;;
15130;SDS011;7666;50.920;4.628;2023-02-28T01:02:20;7.07;;;5.70;;
15130;SDS011;7666;50.920;4.628;2023-02-28T01:05:07;7.97;;;5.67;;
15130;SDS011;7666;50.920;4.628;2023-02-28T01:07:53;8.33;;;5.77;;
15130;SDS011;7666;50.920;4.628;2023-02-28T01:10:39;6.30;;;5.13;;
15130;SDS011;7666;50.920;4.628;2023-02-28T01:13:25;8.00;;;5.80;;
15130;SDS011;7666;50.920;4.628;2023-02-28T01:16:12;8.20;;;6.30;;
15130;SDS011;7666;50.920;4.628;2023-02-28T01:18:58;8.00;;;5.60;;
15130;SDS011;7666;50.920;4.628;2023-02-28T01:21:44;10.73;;;6.00;;
15130;SDS011;7666;50.920;4.628;2023-02-28T01:24:31;7.60;;;5.77;;
15130;SDS011;7666;50.920;4.628;2023-02-28T01:27:18;10.27;;;6.00;;
15130;SDS011;7666;50.920;4.628;2023-02-28T01:30:04;7.97;;;5.70;;
15130;SDS011;7666;50.920;4.628;2023-02-28T01:32:51;10.63;;;6.10;;
15130;SDS011;7666;50.920;4.628;2023-02-28T01:35:38;7.73;;;5.00;;
15130;SDS011;7666;50.920;4.628;2023-02-28T01:38:24;6.73;;;5.53;;
15130;SDS011;7666;50.920;4.628;2023-02-28T01:41:18;7.47;;;5.80;;
15130;SDS011;7666;50.920;4.628;2023-02-28T01:44:07;7.50;;;5.73;;
15130;SDS011;7666;50.920;4.628;2023-02-28T01:47:13;6.50;;;4.93;;
15130;SDS011;7666;50.920;4.628;2023-02-28T01:50:01;8.10;;;5.67;;
15130;SDS011;7666;50.920;4.628;2023-02-28T01:52:50;6.60;;;5.40;;
15130;SDS011;7666;50.920;4.628;2023-02-28T01:55:40;8.47;;;6.00;;
15130;SDS011;7666;50.920;4.628;2023-02-28T01:58:31;6.90;;;5.77;;
15130;SDS011;7666;50.920;4.628;2023-02-28T02:01:17;6.73;;;5.87;;
15130;SDS011;7666;50.920;4.628;2023-02-28T02:04:08;8.10;;;5.70;;
15130;SDS011;7666;50.920;4.628;2023-02-28T02:06:54;8.87;;;5.70;;
15130;SDS011;7666;50.920;4.628;2023-02-28T02:09:40;6.80;;;5.60;;
15130;SDS011;7666;50.920;4.628;2023-02-28T02:19:28;7.07;;;5.97;;
15130;SDS011;7666;50.920;4.628;2023-02-28T02:23:03;6.93;;;6.07;;
15130;SDS011;7666;50.920;4.628;2023-02-28T02:41:33;8.30;;;6.47;;
15130;SDS011;7666;50.920;4.628;2023-02-28T02:44:48;6.87;;;5.20;;
15130;SDS011;7666;50.920;4.628;2023-02-28T02:47:41;7.50;;;6.27;;
15130;SDS011;7666;50.920;4.628;2023-02-28T02:50:31;11.83;;;8.80;;
15130;SDS011;7666;50.920;4.628;2023-02-28T02:53:22;7.47;;;6.67;;
15130;SDS011;7666;50.920;4.628;2023-02-28T02:56:13;6.67;;;5.93;;
15130;SDS011;7666;50.920;4.628;2023-02-28T02:59:01;8.70;;;6.63;;
15130;SDS011;7666;50.920;4.628;2023-02-28T03:01:51;7.40;;;5.73;;
15130;SDS011;7666;50.920;4.628;2023-02-28T03:04:42;8.63;;;6.10;;
15130;SDS011;7666;50.920;4.628;2023-02-28T03:07:31;7.03;;;5.97;;
15130;SDS011;7666;50.920;4.628;2023-02-28T03:10:31;9.33;;;6.70;;
15130;SDS011;7666;50.920;4.628;2023-02-28T03:16:53;11.27;;;8.33;;
15130;SDS011;7666;50.920;4.628;2023-02-28T03:19:58;8.37;;;7.17;;
15130;SDS011;7666;50.920;4.628;2023-02-28T03:26:19;6.73;;;5.97;;
15130;SDS011;7666;50.920;4.628;2023-02-28T03:32:11;9.43;;;7.37;;
15130;SDS011;7666;50.920;4.628;2023-02-28T03:35:16;8.77;;;6.70;;
15130;SDS011;7666;50.920;4.628;2023-02-28T03:44:02;8.00;;;6.97;;
15130;SDS011;7666;50.920;4.628;2023-02-28T03:47:13;8.83;;;7.07;;
15130;SDS011;7666;50.920;4.628;2023-02-28T03:50:14;8.53;;;7.63;;
15130;SDS011;7666;50.920;4.628;2023-02-28T03:53:12;8.30;;;7.03;;
15130;SDS011;7666;50.920;4.628;2023-02-28T03:56:07;10.07;;;7.40;;
15130;SDS011;7666;50.920;4.628;2023-02-28T03:59:13;7.57;;;6.77;;
15130;SDS011;7666;50.920;4.628;2023-02-28T04:02:19;7.73;;;6.57;;
15130;SDS011;7666;50.920;4.628;2023-02-28T04:05:05;9.97;;;6.43;;
15130;SDS011;7666;50.920;4.628;2023-02-28T04:07:52;7.50;;;6.77;;
15130;SDS011;7666;50.920;4.628;2023-02-28T04:10:39;10.00;;;6.97;;
15130;SDS011;7666;50.920;4.628;2023-02-28T04:13:26;8.33;;;7.40;;
15130;SDS011;7666;50.920;4.628;2023-02-28T04:16:12;9.97;;;7.67;;
15130;SDS011;7666;50.920;4.628;2023-02-28T04:18:58;11.00;;;8.13;;
15130;SDS011;7666;50.920;4.628;2023-02-28T04:21:48;9.17;;;7.70;;
15130;SDS011;7666;50.920;4.628;2023-02-28T04:24:37;9.43;;;7.30;;
15130;SDS011;7666;50.920;4.628;2023-02-28T04:27:26;9.07;;;7.93;;
15130;SDS011;7666;50.920;4.628;2023-02-28T04:30:12;8.93;;;7.13;;
15130;SDS011;7666;50.920;4.628;2023-02-28T04:32:59;7.63;;;6.33;;
15130;SDS011;7666;50.920;4.628;2023-02-28T04:35:45;9.80;;;7.20;;
15130;SDS011;7666;50.920;4.628;2023-02-28T04:38:35;9.63;;;7.00;;
15130;SDS011;7666;50.920;4.628;2023-02-28T04:41:22;9.03;;;8.07;;
15130;SDS011;7666;50.920;4.628;2023-02-28T04:44:08;8.30;;;7.50;;
15130;SDS011;7666;50.920;4.628;2023-02-28T04:46:54;8.50;;;7.60;;
15130;SDS011;7666;50.920;4.628;2023-02-28T04:49:40;8.60;;;7.67;;
15130;SDS011;7666;50.920;4.628;2023-02-28T04:52:27;8.93;;;8.10;;
15130;SDS011;7666;50.920;4.628;2023-02-28T04:55:13;9.67;;;8.47;;
15130;SDS011;7666;50.920;4.628;2023-02-28T04:57:59;9.33;;;8.37;;
15130;SDS011;7666;50.920;4.628;2023-02-28T05:00:45;9.20;;;8.30;;
15130;SDS011;7666;50.920;4.628;2023-02-28T05:03:31;9.10;;;7.53;;
15130;SDS011;7666;50.920;4.628;2023-02-28T05:06:17;10.53;;;8.23;;
15130;SDS011;7666;50.920;4.628;2023-02-28T05:09:03;10.13;;;8.40;;
15130;SDS011;7666;50.920;4.628;2023-02-28T05:11:49;11.87;;;9.20;;
15130;SDS011;7666;50.920;4.628;2023-02-28T05:14:35;9.77;;;8.77;;
15130;SDS011;7666;50.920;4.628;2023-02-28T05:17:21;11.43;;;9.17;;
15130;SDS011;7666;50.920;4.628;2023-02-28T05:20:08;10.23;;;9.23;;
15130;SDS011;7666;50.920;4.628;2023-02-28T05:22:56;12.63;;;10.73;;
15130;SDS011;7666;50.920;4.628;2023-02-28T05:25:44;11.03;;;9.83;;
15130;SDS011;7666;50.920;4.628;2023-02-28T05:28:29;10.57;;;9.23;;
15130;SDS011;7666;50.920;4.628;2023-02-28T05:31:16;10.63;;;9.27;;
15130;SDS011;7666;50.920;4.628;2023-02-28T05:34:02;10.17;;;9.10;;
15130;SDS011;7666;50.920;4.628;2023-02-28T05:36:49;10.80;;;9.70;;
15130;SDS011;7666;50.920;4.628;2023-02-28T05:39:35;14.73;;;10.43;;
15130;SDS011;7666;50.920;4.628;2023-02-28T05:42:21;14.60;;;11.00;;
15130;SDS011;7666;50.920;4.628;2023-02-28T05:45:07;11.50;;;10.33;;
15130;SDS011;7666;50.920;4.628;2023-02-28T05:47:54;11.93;;;10.73;;
15130;SDS011;7666;50.920;4.628;2023-02-28T05:50:40;13.63;;;11.07;;
15130;SDS011;7666;50.920;4.628;2023-02-28T05:53:28;11.40;;;10.20;;
15130;SDS011;7666;50.920;4.628;2023-02-28T05:56:14;11.37;;;10.00;;
15130;SDS011;7666;50.920;4.628;2023-02-28T05:59:01;12.00;;;10.73;;
15130;SDS011;7666;50.920;4.628;2023-02-28T06:01:47;12.90;;;10.77;;
15130;SDS011;7666;50.920;4.628;2023-02-28T06:04:35;11.60;;;10.33;;
15130;SDS011;7666;50.920;4.628;2023-02-28T06:07:21;11.50;;;10.03;;
15130;SDS011;7666;50.920;4.628;2023-02-28T06:10:08;11.37;;;10.20;;
15130;SDS011;7666;50.920;4.628;2023-02-28T06:12:55;11.13;;;10.03;;
15130;SDS011;7666;50.920;4.628;2023-02-28T06:15:44;11.63;;;10.43;;
15130;SDS011;7666;50.920;4.628;2023-02-28T06:18:30;12.97;;;9.63;;
15130;SDS011;7666;50.920;4.628;2023-02-28T06:21:16;14.83;;;10.23;;
15130;SDS011;7666;50.920;4.628;2023-02-28T06:24:02;12.20;;;9.83;;
15130;SDS011;7666;50.920;4.628;2023-02-28T06:26:49;11.93;;;9.87;;
15130;SDS011;7666;50.920;4.628;2023-02-28T06:29:35;10.97;;;9.77;;
15130;SDS011;7666;50.920;4.628;2023-02-28T06:32:25;11.37;;;9.47;;
15130;SDS011;7666;50.920;4.628;2023-02-28T06:35:11;12.23;;;9.10;;
15130;SDS011;7666;50.920;4.628;2023-02-28T06:37:57;11.03;;;9.13;;
15130;SDS011;7666;50.920;4.628;2023-02-28T06:40:43;11.40;;;10.20;;
15130;SDS011;7666;50.920;4.628;2023-02-28T06:43:30;12.27;;;9.77;;
15130;SDS011;7666;50.920;4.628;2023-02-28T06:46:19;12.47;;;9.73;;
15130;SDS011;7666;50.920;4.628;2023-02-28T06:49:05;12.40;;;9.13;;
15130;SDS011;7666;50.920;4.628;2023-02-28T06:51:54;9.17;;;7.93;;
15130;SDS011;7666;50.920;4.628;2023-02-28T06:54:40;8.30;;;7.40;;
15130;SDS011;7666;50.920;4.628;2023-02-28T06:57:29;8.57;;;6.80;;
15130;SDS011;7666;50.920;4.628;2023-02-28T07:00:16;8.27;;;6.27;;
15130;SDS011;7666;50.920;4.628;2023-02-28T07:03:02;7.47;;;5.40;;
15130;SDS011;7666;50.920;4.628;2023-02-28T07:05:48;8.40;;;5.10;;
15130;SDS011;7666;50.920;4.628;2023-02-28T07:08:34;8.13;;;5.37;;
15130;SDS011;7666;50.920;4.628;2023-02-28T07:11:25;7.17;;;5.10;;
15130;SDS011;7666;50.920;4.628;2023-02-28T07:14:12;8.10;;;5.30;;
15130;SDS011;7666;50.920;4.628;2023-02-28T07:16:58;8.03;;;5.47;;
15130;SDS011;7666;50.920;4.628;2023-02-28T07:19:44;6.90;;;5.57;;
15130;SDS011;7666;50.920;4.628;2023-02-28T07:22:30;6.47;;;5.80;;
15130;SDS011;7666;50.920;4.628;2023-02-28T07:25:16;7.67;;;5.73;;
15130;SDS011;7666;50.920;4.628;2023-02-28T07:28:02;7.23;;;5.43;;
15130;SDS011;7666;50.920;4.628;2023-02-28T07:30:48;7.87;;;5.20;;
15130;SDS011;7666;50.920;4.628;2023-02-28T07:33:34;6.50;;;5.00;;
15130;SDS011;7666;50.920;4.628;2023-02-28T07:36:21;6.00;;;5.00;;
15130;SDS011;7666;50.920;4.628;2023-02-28T07:39:07;6.53;;;4.90;;
15130;SDS011;7666;50.920;4.628;2023-02-28T07:41:55;6.70;;;5.63;;
15130;SDS011;7666;50.920;4.628;2023-02-28T07:44:42;9.13;;;5.80;;
15130;SDS011;7666;50.920;4.628;2023-02-28T07:47:31;6.87;;;5.00;;
15130;SDS011;7666;50.920;4.628;2023-02-28T07:50:17;9.17;;;5.53;;
15130;SDS011;7666;50.920;4.628;2023-02-28T07:53:03;5.97;;;4.83;;
15130;SDS011;7666;50.920;4.628;2023-02-28T07:55:49;6.70;;;5.03;;
15130;SDS011;7666;50.920;4.628;2023-02-28T07:58:36;7.27;;;4.80;;
15130;SDS011;7666;50.920;4.628;2023-02-28T08:01:22;6.87;;;4.90;;
15130;SDS011;7666;50.920;4.628;2023-02-28T08:04:08;6.80;;;4.70;;
15130;SDS011;7666;50.920;4.628;2023-02-28T08:06:54;7.17;;;5.03;;
15130;SDS011;7666;50.920;4.628;2023-02-28T08:09:41;7.30;;;5.23;;
15130;SDS011;7666;50.920;4.628;2023-02-28T08:12:28;10.00;;;5.43;;
15130;SDS011;7666;50.920;4.628;2023-02-28T08:15:14;6.60;;;5.20;;
15130;SDS011;7666;50.920;4.628;2023-02-28T08:18:00;7.87;;;4.90;;
15130;SDS011;7666;50.920;4.628;2023-02-28T08:20:46;7.47;;;5.20;;
15130;SDS011;7666;50.920;4.628;2023-02-28T08:23:32;7.10;;;4.63;;
15130;SDS011;7666;50.920;4.628;2023-02-28T08:26:19;5.30;;;4.23;;
15130;SDS011;7666;50.920;4.628;2023-02-28T08:29:06;5.60;;;4.77;;
15130;SDS011;7666;50.920;4.628;2023-02-28T08:31:52;7.00;;;4.73;;
15130;SDS011;7666;50.920;4.628;2023-02-28T08:34:39;6.77;;;4.73;;
15130;SDS011;7666;50.920;4.628;2023-02-28T08:37:25;5.40;;;4.43;;
15130;SDS011;7666;50.920;4.628;2023-02-28T08:40:11;5.67;;;4.20;;
15130;SDS011;7666;50.920;4.628;2023-02-28T08:43:03;6.33;;;4.50;;
15130;SDS011;7666;50.920;4.628;2023-02-28T08:45:51;4.77;;;4.10;;
15130;SDS011;7666;50.920;4.628;2023-02-28T08:48:37;5.53;;;4.50;;
15130;SDS011;7666;50.920;4.628;2023-02-28T08:51:23;7.60;;;4.57;;
15130;SDS011;7666;50.920;4.628;2023-02-28T08:54:12;7.10;;;4.63;;
15130;SDS011;7666;50.920;4.628;2023-02-28T08:57:01;4.73;;;3.70;;
15130;SDS011;7666;50.920;4.628;2023-02-28T08:59:48;4.97;;;3.70;;
15130;SDS011;7666;50.920;4.628;2023-02-28T09:02:34;4.50;;;3.80;;
15130;SDS011;7666;50.920;4.628;2023-02-28T09:05:20;5.37;;;3.63;;
15130;SDS011;7666;50.920;4.628;2023-02-28T09:08:06;4.33;;;3.40;;
15130;SDS011;7666;50.920;4.628;2023-02-28T09:10:52;4.23;;;3.47;;
15130;SDS011;7666;50.920;4.628;2023-02-28T09:13:39;6.53;;;3.20;;
15130;SDS011;7666;50.920;4.628;2023-02-28T09:16:25;5.90;;;3.60;;
15130;SDS011;7666;50.920;4.628;2023-02-28T09:19:12;4.90;;;3.60;;
15130;SDS011;7666;50.920;4.628;2023-02-28T09:21:58;4.03;;;3.20;;
15130;SDS011;7666;50.920;4.628;2023-02-28T09:24:44;4.83;;;3.20;;
15130;SDS011;7666;50.920;4.628;2023-02-28T09:27:30;3.87;;;3.03;;
15130;SDS011;7666;50.920;4.628;2023-02-28T09:30:16;4.00;;;3.23;;
15130;SDS011;7666;50.920;4.628;2023-02-28T09:33:02;5.10;;;3.67;;
15130;SDS011;7666;50.920;4.628;2023-02-28T09:35:49;5.53;;;3.07;;
15130;SDS011;7666;50.920;4.628;2023-02-28T09:38:36;4.50;;;2.87;;
15130;SDS011;7666;50.920;4.628;2023-02-28T09:41:23;3.80;;;3.10;;
15130;SDS011;7666;50.920;4.628;2023-02-28T09:44:15;4.67;;;2.93;;
15130;SDS011;7666;50.920;4.628;2023-02-28T09:47:14;3.40;;;2.50;;
15130;SDS011;7666;50.920;4.628;2023-02-28T09:53:36;3.40;;;2.13;;
15130;SDS011;7666;50.920;4.628;2023-02-28T09:56:26;2.77;;;2.20;;
15130;SDS011;7666;50.920;4.628;2023-02-28T10:08:40;1.67;;;1.57;;
15130;SDS011;7666;50.920;4.628;2023-02-28T10:11:32;2.50;;;1.57;;
15130;SDS011;7666;50.920;4.628;2023-02-28T10:14:21;1.97;;;1.57;;
15130;SDS011;7666;50.920;4.628;2023-02-28T10:17:43;2.47;;;1.60;;
15130;SDS011;7666;50.920;4.628;2023-02-28T10:20:24;2.30;;;1.70;;
15130;SDS011;7666;50.920;4.628;2023-02-28T10:26:20;2.23;;;1.70;;
15130;SDS011;7666;50.920;4.628;2023-02-28T10:29:07;2.93;;;1.80;;
15130;SDS011;7666;50.920;4.628;2023-02-28T10:31:54;6.00;;;2.20;;
15130;SDS011;7666;50.920;4.628;2023-02-28T10:34:41;2.10;;;1.90;;
15130;SDS011;7666;50.920;4.628;2023-02-28T10:37:27;2.20;;;1.80;;
15130;SDS011;7666;50.920;4.628;2023-02-28T10:43:17;1.67;;;1.57;;
15130;SDS011;7666;50.920;4.628;2023-02-28T10:49:01;2.20;;;1.80;;
15130;SDS011;7666;50.920;4.628;2023-02-28T10:52:07;2.83;;;2.00;;
15130;SDS011;7666;50.920;4.628;2023-02-28T10:55:12;2.80;;;2.20;;
15130;SDS011;7666;50.920;4.628;2023-02-28T10:58:19;2.47;;;1.80;;
15130;SDS011;7666;50.920;4.628;2023-02-28T11:01:12;3.80;;;2.10;;
15130;SDS011;7666;50.920;4.628;2023-02-28T11:10:03;2.63;;;1.90;;
15130;SDS011;7666;50.920;4.628;2023-02-28T11:12:53;2.83;;;2.10;;
15130;SDS011;7666;50.920;4.628;2023-02-28T11:15:41;5.37;;;2.13;;
15130;SDS011;7666;50.920;4.628;2023-02-28T11:18:29;2.30;;;2.00;;
15130;SDS011;7666;50.920;4.628;2023-02-28T11:21:29;3.03;;;1.87;;
15130;SDS011;7666;50.920;4.628;2023-02-28T11:24:39;3.93;;;2.20;;
15130;SDS011;7666;50.920;4.628;2023-02-28T11:33:21;2.63;;;2.00;;
15130;SDS011;7666;50.920;4.628;2023-02-28T11:39:19;3.07;;;2.20;;
15130;SDS011;7666;50.920;4.628;2023-02-28T11:42:28;2.47;;;2.20;;
15130;SDS011;7666;50.920;4.628;2023-02-28T11:49:15;2.10;;;1.90;;
15130;SDS011;7666;50.920;4.628;2023-02-28T11:52:32;2.93;;;1.80;;
15130;SDS011;7666;50.920;4.628;2023-02-28T12:01:34;3.20;;;1.80;;
15130;SDS011;7666;50.920;4.628;2023-02-28T12:04:43;2.90;;;2.03;;
15130;SDS011;7666;50.920;4.628;2023-02-28T12:10:44;2.17;;;1.77;;
15130;SDS011;7666;50.920;4.628;2023-02-28T12:13:48;5.00;;;1.90;;
15130;SDS011;7666;50.920;4.628;2023-02-28T12:17:05;3.50;;;2.00;;
15130;SDS011;7666;50.920;4.628;2023-02-28T12:26:36;3.37;;;1.70;;
15130;SDS011;7666;50.920;4.628;2023-02-28T12:32:21;2.17;;;1.83;;
15130;SDS011;7666;50.920;4.628;2023-02-28T12:35:19;3.03;;;2.03;;
15130;SDS011;7666;50.920;4.628;2023-02-28T12:38:14;3.10;;;2.10;;
15130;SDS011;7666;50.920;4.628;2023-02-28T12:41:15;5.23;;;2.67;;
15130;SDS011;7666;50.920;4.628;2023-02-28T12:44:10;3.33;;;1.97;;
15130;SDS011;7666;50.920;4.628;2023-02-28T12:47:09;2.13;;;1.90;;
15130;SDS011;7666;50.920;4.628;2023-02-28T12:50:04;1.60;;;1.50;;
15130;SDS011;7666;50.920;4.628;2023-02-28T12:53:00;3.73;;;2.07;;
15130;SDS011;7666;50.920;4.628;2023-02-28T12:58:51;1.70;;;1.60;;
15130;SDS011;7666;50.920;4.628;2023-02-28T13:02:09;1.97;;;1.73;;
15130;SDS011;7666;50.920;4.628;2023-02-28T13:11:32;2.77;;;1.80;;
15130;SDS011;7666;50.920;4.628;2023-02-28T13:14:29;2.67;;;2.10;;
15130;SDS011;7666;50.920;4.628;2023-02-28T13:17:21;1.90;;;1.77;;
15130;SDS011;7666;50.920;4.628;2023-02-28T13:20:18;2.00;;;1.83;;
15130;SDS011;7666;50.920;4.628;2023-02-28T13:23:16;1.73;;;1.60;;
15130;SDS011;7666;50.920;4.628;2023-02-28T13:29:28;3.30;;;2.23;;
15130;SDS011;7666;50.920;4.628;2023-02-28T13:32:20;2.23;;;1.90;;
15130;SDS011;7666;50.920;4.628;2023-02-28T13:35:17;2.07;;;1.80;;
15130;SDS011;7666;50.920;4.628;2023-02-28T13:38:22;6.67;;;2.00;;
15130;SDS011;7666;50.920;4.628;2023-02-28T13:49:47;2.23;;;1.80;;
15130;SDS011;7666;50.920;4.628;2023-02-28T13:52:34;3.60;;;2.03;;
15130;SDS011;7666;50.920;4.628;2023-02-28T13:55:53;3.07;;;2.20;;
15130;SDS011;7666;50.920;4.628;2023-02-28T13:59:04;2.10;;;1.90;;
15130;SDS011;7666;50.920;4.628;2023-02-28T14:05:28;3.30;;;1.90;;
15130;SDS011;7666;50.920;4.628;2023-02-28T14:08:16;2.53;;;2.03;;
15130;SDS011;7666;50.920;4.628;2023-02-28T14:11:22;2.03;;;1.80;;
15130;SDS011;7666;50.920;4.628;2023-02-28T14:14:54;3.10;;;1.90;;
15130;SDS011;7666;50.920;4.628;2023-02-28T14:17:20;3.83;;;2.20;;
15130;SDS011;7666;50.920;4.628;2023-02-28T14:20:12;2.40;;;2.20;;
15130;SDS011;7666;50.920;4.628;2023-02-28T14:26:07;3.67;;;2.03;;
15130;SDS011;7666;50.920;4.628;2023-02-28T14:38:47;2.60;;;2.33;;
15130;SDS011;7666;50.920;4.628;2023-02-28T14:41:39;4.53;;;2.43;;
15130;SDS011;7666;50.920;4.628;2023-02-28T14:44:27;3.23;;;2.60;;
15130;SDS011;7666;50.920;4.628;2023-02-28T14:47:14;3.23;;;2.90;;
15130;SDS011;7666;50.920;4.628;2023-02-28T14:50:02;2.60;;;2.27;;
15130;SDS011;7666;50.920;4.628;2023-02-28T14:52:51;3.13;;;2.30;;
15130;SDS011;7666;50.920;4.628;2023-02-28T14:55:43;3.70;;;2.30;;
15130;SDS011;7666;50.920;4.628;2023-02-28T14:58:32;2.90;;;2.20;;
15130;SDS011;7666;50.920;4.628;2023-02-28T15:01:20;4.17;;;2.67;;
15130;SDS011;7666;50.920;4.628;2023-02-28T15:04:12;2.67;;;2.40;;
15130;SDS011;7666;50.920;4.628;2023-02-28T15:07:15;5.97;;;2.40;;
15130;SDS011;7666;50.920;4.628;2023-02-28T15:13:05;2.77;;;2.30;;
15130;SDS011;7666;50.920;4.628;2023-02-28T15:15:59;5.93;;;2.57;;
15130;SDS011;7666;50.920;4.628;2023-02-28T15:18:51;4.27;;;2.63;;
15130;SDS011;7666;50.920;4.628;2023-02-28T15:21:41;4.03;;;2.47;;
15130;SDS011;7666;50.920;4.628;2023-02-28T15:27:28;2.37;;;2.17;;
15130;SDS011;7666;50.920;4.628;2023-02-28T15:30:27;2.73;;;2.13;;
15130;SDS011;7666;50.920;4.628;2023-02-28T15:33:19;3.07;;;2.60;;
15130;SDS011;7666;50.920;4.628;2023-02-28T15:36:13;3.77;;;2.77;;
15130;SDS011;7666;50.920;4.628;2023-02-28T15:39:01;2.90;;;2.43;;
15130;SDS011;7666;50.920;4.628;2023-02-28T15:41:47;3.17;;;2.07;;
15130;SDS011;7666;50.920;4.628;2023-02-28T15:44:33;3.00;;;2.50;;
15130;SDS011;7666;50.920;4.628;2023-02-28T15:47:21;3.13;;;2.60;;
15130;SDS011;7666;50.920;4.628;2023-02-28T15:50:10;3.97;;;2.30;;
15130;SDS011;7666;50.920;4.628;2023-02-28T15:52:59;2.63;;;2.40;;
15130;SDS011;7666;50.920;4.628;2023-02-28T15:55:52;3.57;;;2.40;;
15130;SDS011;7666;50.920;4.628;2023-02-28T15:58:41;3.10;;;2.13;;
15130;SDS011;7666;50.920;4.628;2023-02-28T16:01:28;4.00;;;2.20;;
15130;SDS011;7666;50.920;4.628;2023-02-28T16:04:18;4.40;;;2.17;;
15130;SDS011;7666;50.920;4.628;2023-02-28T16:07:05;3.77;;;2.70;;
15130;SDS011;7666;50.920;4.628;2023-02-28T16:09:57;3.83;;;2.43;;
15130;SDS011;7666;50.920;4.628;2023-02-28T16:12:44;2.47;;;2.20;;
15130;SDS011;7666;50.920;4.628;2023-02-28T16:15:31;3.27;;;2.20;;
15130;SDS011;7666;50.920;4.628;2023-02-28T16:18:26;3.17;;;2.87;;
15130;SDS011;7666;50.920;4.628;2023-02-28T16:21:12;3.20;;;2.50;;
15130;SDS011;7666;50.920;4.628;2023-02-28T16:23:58;4.43;;;2.40;;
15130;SDS011;7666;50.920;4.628;2023-02-28T16:26:45;3.40;;;2.40;;
15130;SDS011;7666;50.920;4.628;2023-02-28T16:29:34;3.10;;;1.90;;
15130;SDS011;7666;50.920;4.628;2023-02-28T16:32:22;3.83;;;2.43;;
15130;SDS011;7666;50.920;4.628;2023-02-28T16:35:11;2.20;;;2.00;;
15130;SDS011;7666;50.920;4.628;2023-02-28T16:37:59;4.23;;;2.10;;
15130;SDS011;7666;50.920;4.628;2023-02-28T16:40:45;3.00;;;2.00;;
15130;SDS011;7666;50.920;4.628;2023-02-28T16:43:31;4.40;;;2.40;;
15130;SDS011;7666;50.920;4.628;2023-02-28T16:46:17;4.90;;;2.13;;
15130;SDS011;7666;50.920;4.628;2023-02-28T16:49:05;3.57;;;2.03;;
15130;SDS011;7666;50.920;4.628;2023-02-28T16:51:58;3.50;;;2.50;;
15130;SDS011;7666;50.920;4.628;2023-02-28T16:54:44;3.83;;;2.90;;
15130;SDS011;7666;50.920;4.628;2023-02-28T16:57:30;8.07;;;3.00;;
15130;SDS011;7666;50.920;4.628;2023-02-28T17:00:16;4.20;;;2.40;;
15130;SDS011;7666;50.920;4.628;2023-02-28T17:03:03;3.23;;;2.57;;
15130;SDS011;7666;50.920;4.628;2023-02-28T17:05:49;3.77;;;2.47;;
15130;SDS011;7666;50.920;4.628;2023-02-28T17:08:35;8.37;;;3.03;;
15130;SDS011;7666;50.920;4.628;2023-02-28T17:11:21;3.63;;;2.40;;
15130;SDS011;7666;50.920;4.628;2023-02-28T17:14:07;6.40;;;3.83;;
15130;SDS011;7666;50.920;4.628;2023-02-28T17:16:53;7.17;;;4.90;;
15130;SDS011;7666;50.920;4.628;2023-02-28T17:19:39;6.27;;;4.10;;
15130;SDS011;7666;50.920;4.628;2023-02-28T17:22:28;6.10;;;3.40;;
15130;SDS011;7666;50.920;4.628;2023-02-28T17:25:14;8.63;;;3.40;;
15130;SDS011;7666;50.920;4.628;2023-02-28T17:28:00;5.83;;;2.50;;
15130;SDS011;7666;50.920;4.628;2023-02-28T17:30:46;3.50;;;2.50;;
15130;SDS011;7666;50.920;4.628;2023-02-28T17:33:33;3.90;;;2.60;;
15130;SDS011;7666;50.920;4.628;2023-02-28T17:36:23;4.97;;;3.23;;
15130;SDS011;7666;50.920;4.628;2023-02-28T17:39:11;3.83;;;2.83;;
15130;SDS011;7666;50.920;4.628;2023-02-28T17:41:59;3.93;;;3.23;;
15130;SDS011;7666;50.920;4.628;2023-02-28T17:44:45;8.27;;;4.30;;
15130;SDS011;7666;50.920;4.628;2023-02-28T17:47:31;11.33;;;7.13;;
15130;SDS011;7666;50.920;4.628;2023-02-28T17:50:19;10.13;;;6.40;;
15130;SDS011;7666;50.920;4.628;2023-02-28T17:53:06;6.43;;;4.43;;
15130;SDS011;7666;50.920;4.628;2023-02-28T17:55:52;5.03;;;3.53;;
15130;SDS011;7666;50.920;4.628;2023-02-28T17:58:38;4.67;;;3.20;;
15130;SDS011;7666;50.920;4.628;2023-02-28T18:01:25;4.73;;;3.20;;
15130;SDS011;7666;50.920;4.628;2023-02-28T18:04:13;6.27;;;4.00;;
15130;SDS011;7666;50.920;4.628;2023-02-28T18:06:59;8.93;;;4.93;;
15130;SDS011;7666;50.920;4.628;2023-02-28T18:09:45;7.43;;;3.87;;
15130;SDS011;7666;50.920;4.628;2023-02-28T18:12:31;4.40;;;3.30;;
15130;SDS011;7666;50.920;4.628;2023-02-28T18:15:18;8.17;;;5.37;;
15130;SDS011;7666;50.920;4.628;2023-02-28T18:18:07;8.40;;;5.87;;
15130;SDS011;7666;50.920;4.628;2023-02-28T18:20:53;7.27;;;4.13;;
15130;SDS011;7666;50.920;4.628;2023-02-28T18:23:40;5.60;;;3.80;;
15130;SDS011;7666;50.920;4.628;2023-02-28T18:26:32;6.30;;;4.17;;
15130;SDS011;7666;50.920;4.628;2023-02-28T18:29:19;7.50;;;5.07;;
15130;SDS011;7666;50.920;4.628;2023-02-28T18:32:07;6.93;;;5.20;;
15130;SDS011;7666;50.920;4.628;2023-02-28T18:34:55;6.27;;;4.67;;
15130;SDS011;7666;50.920;4.628;2023-02-28T18:37:41;7.50;;;4.60;;
15130;SDS011;7666;50.920;4.628;2023-02-28T18:40:27;6.50;;;4.70;;
15130;SDS011;7666;50.920;4.628;2023-02-28T18:43:13;11.60;;;7.43;;
15130;SDS011;7666;50.920;4.628;2023-02-28T18:46:06;11.40;;;7.40;;
15130;SDS011;7666;50.920;4.628;2023-02-28T18:48:54;10.83;;;6.57;;
15130;SDS011;7666;50.920;4.628;2023-02-28T18:51:40;9.77;;;6.07;;
15130;SDS011;7666;50.920;4.628;2023-02-28T18:54:30;8.23;;;5.37;;
15130;SDS011;7666;50.920;4.628;2023-02-28T18:57:16;8.47;;;5.00;;
15130;SDS011;7666;50.920;4.628;2023-02-28T19:00:02;7.53;;;4.80;;
15130;SDS011;7666;50.920;4.628;2023-02-28T19:02:49;7.70;;;5.13;;
15130;SDS011;7666;50.920;4.628;2023-02-28T19:05:35;7.67;;;6.00;;
15130;SDS011;7666;50.920;4.628;2023-02-28T19:08:22;8.53;;;6.30;;
15130;SDS011;7666;50.920;4.628;2023-02-28T19:11:10;7.77;;;5.83;;
15130;SDS011;7666;50.920;4.628;2023-02-28T19:14:00;7.60;;;6.10;;
15130;SDS011;7666;50.920;4.628;2023-02-28T19:16:47;6.17;;;5.13;;
15130;SDS011;7666;50.920;4.628;2023-02-28T19:19:34;6.67;;;5.30;;
15130;SDS011;7666;50.920;4.628;2023-02-28T19:22:20;6.20;;;5.30;;
15130;SDS011;7666;50.920;4.628;2023-02-28T19:25:06;5.33;;;4.77;;
15130;SDS011;7666;50.920;4.628;2023-02-28T19:27:53;8.30;;;6.70;;
15130;SDS011;7666;50.920;4.628;2023-02-28T19:30:45;7.40;;;6.40;;
15130;SDS011;7666;50.920;4.628;2023-02-28T19:33:32;9.20;;;6.80;;
15130;SDS011;7666;50.920;4.628;2023-02-28T19:36:18;7.77;;;5.80;;